Time,TemperatureF,DewpointF,PressureIn,WindDirection,WindDirectionDegrees,WindSpeedMPH,WindSpeedGustMPH,Humidity,HourlyPrecipIn,Conditions,Clouds,dailyrainin,SoftwareType,DateUTC
2014-02-16 07:52:00,28.0,21.4,30.07,NW,316,0.0,0.0,76,0.00,,---,0.00,VWS V15.00,2014-02-16 12:52:00,
2014-02-16 07:53:00,27.9,21.3,30.07,NW,316,0.0,0.0,76,0.00,,---,0.00,VWS V15.00,2014-02-16 12:53:00,
2014-02-16 07:54:00,28.0,21.4,30.07,NW,316,0.0,0.0,76,0.00,,---,0.00,VWS V15.00,2014-02-16 12:54:00,
2014-02-16 07:55:00,27.9,21.3,30.07,NW,316,0.0,0.0,76,0.00,,---,0.00,VWS V15.00,2014-02-16 12:55:00,
2014-02-16 08:00:00,28.1,21.5,30.07,NW,316,0.0,0.0,76,0.00,,---,0.00,VWS V15.00,2014-02-16 13:00:00,
2014-02-16 08:05:00,28.5,21.9,30.07,NW,316,0.0,0.0,76,0.00,,---,0.00,VWS V15.00,2014-02-16 13:05:00,
2014-02-16 08:10:00,29.4,22.8,30.07,NW,316,0.0,0.0,76,0.00,,---,0.00,VWS V15.00,2014-02-16 13:10:00,
2014-02-16 08:15:00,30.5,23.9,30.07,WNW,288,0.0,0.0,76,0.00,,---,0.00,VWS V15.00,2014-02-16 13:15:00,
2014-02-16 08:20:00,31.3,24.6,30.07,WNW,288,0.0,0.0,76,0.00,,---,0.00,VWS V15.00,2014-02-16 13:20:00,
2014-02-16 08:25:00,32.5,25.8,30.07,SW,218,0.0,0.0,76,0.00,,---,0.00,VWS V15.00,2014-02-16 13:25:00,
2014-02-16 08:30:00,34.4,27.6,30.07,East,79,0.0,0.0,76,0.00,,---,0.00,VWS V15.00,2014-02-16 13:30:00,
2014-02-16 08:35:00,36.2,29.4,30.07,South,184,0.0,0.0,76,0.00,,---,0.00,VWS V15.00,2014-02-16 13:35:00,
2014-02-16 08:40:00,37.5,30.6,30.07,South,184,0.0,0.0,76,0.00,,---,0.00,VWS V15.00,2014-02-16 13:40:00,
2014-02-16 08:45:00,38.2,31.3,30.07,South,179,1.0,1.0,76,0.00,,---,0.00,VWS V15.00,2014-02-16 13:45:00,
2014-02-16 08:50:00,39.1,32.2,30.07,SE,145,1.0,2.0,76,0.00,,---,0.00,VWS V15.00,2014-02-16 13:50:00,
2014-02-16 08:55:00,40.4,33.5,30.07,South,179,2.0,3.0,76,0.00,,---,0.00,VWS V15.00,2014-02-16 13:55:00,
2014-02-16 09:00:00,41.4,34.1,30.07,SE,145,1.0,2.0,75,0.00,,---,0.00,VWS V15.00,2014-02-16 14:00:00,
2014-02-16 09:05:00,42.2,34.9,30.07,SSE,149,1.0,2.0,75,0.00,,---,0.00,VWS V15.00,2014-02-16 14:05:00,
2014-02-16 09:10:00,42.8,35.4,30.07,SW,214,1.0,3.0,75,0.00,,---,0.00,VWS V15.00,2014-02-16 14:10:00,
2014-02-16 09:15:00,43.3,35.9,30.07,South,178,3.0,4.0,75,0.00,,---,0.00,VWS V15.00,2014-02-16 14:15:00,
2014-02-16 09:20:00,43.8,36.4,30.07,SSE,165,2.0,2.0,75,0.00,,---,0.00,VWS V15.00,2014-02-16 14:20:00,
2014-02-16 09:26:00,44.3,36.9,30.07,SSE,158,2.0,2.0,75,0.00,,---,0.00,VWS V15.00,2014-02-16 14:26:00,
2014-02-16 09:31:00,44.9,37.5,30.07,South,191,0.0,2.0,75,0.00,,---,0.00,VWS V15.00,2014-02-16 14:31:00,
2014-02-16 09:36:00,45.8,38.3,30.07,SSW,197,0.0,1.0,75,0.00,,---,0.00,VWS V15.00,2014-02-16 14:36:00,
2014-02-16 09:41:00,46.6,39.1,30.07,ESE,117,1.0,2.0,75,0.00,,---,0.00,VWS V15.00,2014-02-16 14:41:00,
2014-02-16 09:46:00,47.1,39.6,30.07,WNW,300,0.0,2.0,75,0.00,,---,0.00,VWS V15.00,2014-02-16 14:46:00,
2014-02-16 09:52:00,47.4,39.9,30.07,SE,124,1.0,1.0,75,0.00,,---,0.00,VWS V15.00,2014-02-16 14:52:00,
2014-02-16 09:57:00,47.9,40.4,30.07,SSE,167,2.0,5.0,75,0.00,,---,0.00,VWS V15.00,2014-02-16 14:57:00,
2014-02-16 10:02:00,47.9,40.4,30.07,SSW,205,1.0,4.0,75,0.00,,---,0.00,VWS V15.00,2014-02-16 15:02:00,
2014-02-16 10:07:00,47.9,40.4,30.07,South,174,2.0,3.0,75,0.00,,---,0.00,VWS V15.00,2014-02-16 15:07:00,
2014-02-16 10:12:00,48.4,40.8,30.07,SSE,156,2.0,3.0,75,0.00,,---,0.00,VWS V15.00,2014-02-16 15:12:00,
2014-02-16 10:18:00,49.2,41.6,30.06,SSW,209,1.0,2.0,75,0.00,,---,0.00,VWS V15.00,2014-02-16 15:18:00,
2014-02-16 10:23:00,49.7,42.1,30.07,South,174,3.0,6.0,75,0.00,,---,0.00,VWS V15.00,2014-02-16 15:23:00,
2014-02-16 10:28:00,50.0,42.4,30.07,SSW,197,1.0,4.0,75,0.00,,---,0.00,VWS V15.00,2014-02-16 15:28:00,
2014-02-16 10:33:00,50.3,42.7,30.07,South,191,4.0,5.0,75,0.00,,---,0.00,VWS V15.00,2014-02-16 15:33:00,
2014-02-16 10:38:00,50.6,42.6,30.07,West,264,1.0,2.0,74,0.00,,---,0.00,VWS V15.00,2014-02-16 15:38:00,
2014-02-16 10:43:00,50.8,42.8,30.07,South,190,1.0,2.0,74,0.00,,---,0.00,VWS V15.00,2014-02-16 15:43:00,
2014-02-16 10:48:00,51.2,43.2,30.07,West,277,0.0,1.0,74,0.00,,---,0.00,VWS V15.00,2014-02-16 15:48:00,
2014-02-16 10:54:00,51.4,43.4,30.07,SSE,161,3.0,4.0,74,0.00,,---,0.00,VWS V15.00,2014-02-16 15:54:00,
2014-02-16 10:59:00,51.3,43.3,30.07,SSW,212,2.0,4.0,74,0.00,,---,0.00,VWS V15.00,2014-02-16 15:59:00,
2014-02-16 11:04:00,51.6,43.6,30.07,SSE,158,2.0,7.0,74,0.00,,---,0.00,VWS V15.00,2014-02-16 16:04:00,
2014-02-16 11:09:00,52.0,44.0,30.07,South,169,1.0,5.0,74,0.00,,---,0.00,VWS V15.00,2014-02-16 16:09:00,
2014-02-16 11:14:00,52.2,44.2,30.07,SSW,193,2.0,4.0,74,0.00,,---,0.00,VWS V15.00,2014-02-16 16:14:00,
2014-02-16 11:20:00,52.6,44.6,30.07,SW,219,2.0,3.0,74,0.00,,---,0.00,VWS V15.00,2014-02-16 16:20:00,
2014-02-16 11:25:00,53.1,45.0,30.07,SE,139,3.0,4.0,74,0.00,,---,0.00,VWS V15.00,2014-02-16 16:25:00,
2014-02-16 11:30:00,53.4,45.3,30.07,South,184,2.0,6.0,74,0.00,,---,0.00,VWS V15.00,2014-02-16 16:30:00,
2014-02-16 11:35:00,53.9,45.8,30.06,SSW,213,4.0,6.0,74,0.00,,---,0.00,VWS V15.00,2014-02-16 16:35:00,
2014-02-16 11:40:00,54.2,46.1,30.06,SSW,209,1.0,4.0,74,0.00,,---,0.00,VWS V15.00,2014-02-16 16:40:00,
2014-02-16 11:45:00,54.4,46.3,30.06,SW,219,1.0,5.0,74,0.00,,---,0.00,VWS V15.00,2014-02-16 16:45:00,
2014-02-16 11:50:00,54.6,46.5,30.06,West,279,1.0,3.0,74,0.00,,---,0.00,VWS V15.00,2014-02-16 16:50:00,
2014-02-16 11:55:00,54.9,46.8,30.06,WSW,255,0.0,0.0,74,0.00,,---,0.00,VWS V15.00,2014-02-16 16:55:00,
2014-02-16 12:00:00,55.2,47.1,30.06,SSW,204,2.0,7.0,74,0.00,,---,0.00,VWS V15.00,2014-02-16 17:00:00,
2014-02-16 12:05:00,55.6,47.5,30.06,SSW,212,4.0,5.0,74,0.00,,---,0.00,VWS V15.00,2014-02-16 17:05:00,
2014-02-16 12:10:00,55.7,47.2,30.05,SE,128,1.0,4.0,73,0.00,,---,0.00,VWS V15.00,2014-02-16 17:10:00,
2014-02-16 12:15:00,56.5,48.0,30.05,SSW,211,2.0,2.0,73,0.00,,---,0.00,VWS V15.00,2014-02-16 17:15:00,
2014-02-16 12:21:00,57.4,48.8,30.05,WNW,291,1.0,4.0,73,0.00,,---,0.00,VWS V15.00,2014-02-16 17:21:00,
2014-02-16 12:26:00,57.9,49.3,30.05,SE,136,3.0,3.0,73,0.00,,---,0.00,VWS V15.00,2014-02-16 17:26:00,
2014-02-16 12:31:00,58.3,49.7,30.04,NE,56,0.0,4.0,73,0.00,,---,0.00,VWS V15.00,2014-02-16 17:31:00,
2014-02-16 12:36:00,58.7,50.1,30.04,West,265,1.0,2.0,73,0.00,,---,0.00,VWS V15.00,2014-02-16 17:36:00,
2014-02-16 12:41:00,59.0,50.4,30.04,SW,226,2.0,4.0,73,0.00,,---,0.00,VWS V15.00,2014-02-16 17:41:00,
2014-02-16 12:46:00,59.6,51.0,30.04,WNW,294,3.0,3.0,73,0.00,,---,0.00,VWS V15.00,2014-02-16 17:46:00,
2014-02-16 12:51:00,59.5,50.8,30.04,WNW,286,1.0,3.0,73,0.00,,---,0.00,VWS V15.00,2014-02-16 17:51:00,
2014-02-16 12:56:00,59.5,50.8,30.03,NE,36,0.0,4.0,73,0.00,,---,0.00,VWS V15.00,2014-02-16 17:56:00,
2014-02-16 13:01:00,60.1,51.4,30.03,NW,315,1.0,1.0,73,0.00,,---,0.00,VWS V15.00,2014-02-16 18:01:00,
2014-02-16 13:06:00,60.0,51.3,30.03,SW,235,5.0,8.0,73,0.00,,---,0.00,VWS V15.00,2014-02-16 18:06:00,
2014-02-16 13:11:00,59.5,50.8,30.03,SW,229,3.0,4.0,73,0.00,,---,0.00,VWS V15.00,2014-02-16 18:11:00,
2014-02-16 13:16:00,60.1,51.4,30.03,West,270,2.0,6.0,73,0.00,,---,0.00,VWS V15.00,2014-02-16 18:16:00,
2014-02-16 13:21:00,60.6,51.5,30.03,SW,221,3.0,5.0,72,0.00,,---,0.00,VWS V15.00,2014-02-16 18:21:00,
2014-02-16 13:26:00,60.5,51.4,30.03,NW,323,1.0,4.0,72,0.00,,---,0.00,VWS V15.00,2014-02-16 18:26:00,
2014-02-16 13:31:00,60.9,51.8,30.02,SW,227,0.0,2.0,72,0.00,,---,0.00,VWS V15.00,2014-02-16 18:31:00,
2014-02-16 13:36:00,60.5,51.4,30.02,SW,219,5.0,5.0,72,0.00,,---,0.00,VWS V15.00,2014-02-16 18:36:00,
2014-02-16 13:41:00,60.5,51.4,30.02,WSW,250,1.0,4.0,72,0.00,,---,0.00,VWS V15.00,2014-02-16 18:41:00,
2014-02-16 13:46:00,60.7,51.6,30.02,SW,236,4.0,4.0,72,0.00,,---,0.00,VWS V15.00,2014-02-16 18:46:00,
2014-02-16 13:51:00,60.9,51.8,30.02,NW,309,2.0,9.0,72,0.00,,---,0.00,VWS V15.00,2014-02-16 18:51:00,
2014-02-16 13:56:00,61.0,51.9,30.02,SW,214,1.0,6.0,72,0.00,,---,0.00,VWS V15.00,2014-02-16 18:56:00,
2014-02-16 14:01:00,60.9,51.8,30.02,SW,220,2.0,5.0,72,0.00,,---,0.00,VWS V15.00,2014-02-16 19:01:00,
2014-02-16 14:06:00,61.0,51.9,30.01,WNW,299,3.0,7.0,72,0.00,,---,0.00,VWS V15.00,2014-02-16 19:06:00,
2014-02-16 14:11:00,61.2,52.1,30.01,SSW,210,3.0,9.0,72,0.00,,---,0.00,VWS V15.00,2014-02-16 19:11:00,
2014-02-16 14:16:00,61.4,52.3,30.01,West,277,2.0,5.0,72,0.00,,---,0.00,VWS V15.00,2014-02-16 19:16:00,
2014-02-16 14:21:00,61.5,52.4,30.01,WSW,252,3.0,4.0,72,0.00,,---,0.00,VWS V15.00,2014-02-16 19:21:00,
2014-02-16 14:26:00,61.2,52.1,30.01,SW,229,2.0,3.0,72,0.00,,---,0.00,VWS V15.00,2014-02-16 19:26:00,
2014-02-16 14:32:00,61.2,52.1,30.01,SW,223,2.0,7.0,72,0.00,,---,0.00,VWS V15.00,2014-02-16 19:32:00,
2014-02-16 14:37:00,61.2,52.1,30.01,WNW,283,2.0,5.0,72,0.00,,---,0.00,VWS V15.00,2014-02-16 19:37:00,
2014-02-16 14:42:00,61.5,52.0,30.01,SW,231,6.0,8.0,71,0.00,,---,0.00,VWS V15.00,2014-02-16 19:42:00,
2014-02-16 14:47:00,61.6,52.1,30.01,SW,215,0.0,2.0,71,0.00,,---,0.00,VWS V15.00,2014-02-16 19:47:00,
2014-02-16 14:52:00,61.8,52.3,30.00,SSE,161,2.0,5.0,71,0.00,,---,0.00,VWS V15.00,2014-02-16 19:52:00,
2014-02-16 14:57:00,62.0,52.5,30.00,SW,228,2.0,2.0,71,0.00,,---,0.00,VWS V15.00,2014-02-16 19:57:00,
2014-02-16 15:02:00,62.1,52.6,30.00,WSW,250,3.0,4.0,71,0.00,,---,0.00,VWS V15.00,2014-02-16 20:02:00,
2014-02-16 15:07:00,61.9,52.4,30.00,SW,214,0.0,9.0,71,0.00,,---,0.00,VWS V15.00,2014-02-16 20:07:00,
2014-02-16 15:12:00,61.6,52.1,30.00,SW,236,4.0,5.0,71,0.00,,---,0.00,VWS V15.00,2014-02-16 20:12:00,
2014-02-16 15:17:00,61.7,52.2,30.00,SE,138,1.0,4.0,71,0.00,,---,0.00,VWS V15.00,2014-02-16 20:17:00,
2014-02-16 15:22:00,61.8,52.3,30.00,SW,215,3.0,6.0,71,0.00,,---,0.00,VWS V15.00,2014-02-16 20:22:00,
2014-02-16 15:27:00,61.6,52.1,30.00,West,271,1.0,4.0,71,0.00,,---,0.00,VWS V15.00,2014-02-16 20:27:00,
2014-02-16 15:32:00,61.9,52.4,30.01,West,261,3.0,5.0,71,0.00,,---,0.00,VWS V15.00,2014-02-16 20:32:00,
2014-02-16 15:37:00,61.8,52.3,30.01,WSW,246,1.0,3.0,71,0.00,,---,0.00,VWS V15.00,2014-02-16 20:37:00,
2014-02-16 15:42:00,61.9,52.4,30.01,South,171,1.0,6.0,71,0.00,,---,0.00,VWS V15.00,2014-02-16 20:42:00,
2014-02-16 15:47:00,61.9,52.4,30.01,WNW,295,1.0,3.0,71,0.00,,---,0.00,VWS V15.00,2014-02-16 20:47:00,
2014-02-16 15:52:00,62.0,52.5,30.01,WSW,246,1.0,3.0,71,0.00,,---,0.00,VWS V15.00,2014-02-16 20:52:00,
2014-02-16 15:57:00,62.0,52.5,30.01,SW,225,4.0,4.0,71,0.00,,---,0.00,VWS V15.00,2014-02-16 20:57:00,
2014-02-16 16:02:00,62.0,52.1,30.01,SW,222,2.0,2.0,70,0.00,,---,0.00,VWS V15.00,2014-02-16 21:02:00,
2014-02-16 16:07:00,62.0,52.1,30.01,NW,326,3.0,4.0,70,0.00,,---,0.00,VWS V15.00,2014-02-16 21:07:00,
2014-02-16 16:12:00,62.0,52.1,30.02,WSW,255,1.0,8.0,70,0.00,,---,0.00,VWS V15.00,2014-02-16 21:12:00,
2014-02-16 16:17:00,61.9,52.0,30.02,SE,142,2.0,4.0,70,0.00,,---,0.00,VWS V15.00,2014-02-16 21:17:00,
2014-02-16 16:22:00,61.9,52.0,30.02,SW,231,2.0,3.0,70,0.00,,---,0.00,VWS V15.00,2014-02-16 21:22:00,
2014-02-16 16:27:00,61.7,51.8,30.02,South,191,5.0,5.0,70,0.00,,---,0.00,VWS V15.00,2014-02-16 21:27:00,
2014-02-16 16:32:00,61.3,51.5,30.02,WSW,243,1.0,4.0,70,0.00,,---,0.00,VWS V15.00,2014-02-16 21:32:00,
2014-02-16 16:37:00,61.2,51.3,30.02,WSW,245,0.0,3.0,70,0.00,,---,0.00,VWS V15.00,2014-02-16 21:37:00,
2014-02-16 16:42:00,61.2,51.3,30.03,WNW,291,1.0,2.0,70,0.00,,---,0.00,VWS V15.00,2014-02-16 21:42:00,
2014-02-16 16:47:00,61.2,51.3,30.02,WNW,297,4.0,4.0,70,0.00,,---,0.00,VWS V15.00,2014-02-16 21:47:00,
2014-02-16 16:52:00,61.1,51.2,30.03,SW,217,2.0,3.0,70,0.00,,---,0.00,VWS V15.00,2014-02-16 21:52:00,
2014-02-16 16:57:00,61.1,51.2,30.03,West,276,3.0,7.0,70,0.00,,---,0.00,VWS V15.00,2014-02-16 21:57:00,
2014-02-16 17:02:00,60.9,51.1,30.03,SW,222,1.0,6.0,70,0.00,,---,0.00,VWS V15.00,2014-02-16 22:02:00,
2014-02-16 17:07:00,60.5,50.7,30.03,WNW,290,2.0,9.0,70,0.00,,---,0.00,VWS V15.00,2014-02-16 22:07:00,
2014-02-16 17:12:00,59.7,49.9,30.03,WNW,294,5.0,8.0,70,0.00,,---,0.00,VWS V15.00,2014-02-16 22:12:00,
2014-02-16 17:17:00,59.3,49.5,30.03,WSW,251,2.0,5.0,70,0.00,,---,0.00,VWS V15.00,2014-02-16 22:17:00,
2014-02-16 17:22:00,59.0,49.2,30.03,WNW,284,1.0,2.0,70,0.00,,---,0.00,VWS V15.00,2014-02-16 22:22:00,
2014-02-16 17:27:00,58.7,49.0,30.04,WSW,250,2.0,3.0,70,0.00,,---,0.00,VWS V15.00,2014-02-16 22:27:00,
2014-02-16 17:32:00,58.3,48.6,30.04,West,278,2.0,4.0,70,0.00,,---,0.00,VWS V15.00,2014-02-16 22:32:00,
2014-02-16 17:37:00,57.9,48.2,30.04,WSW,256,0.0,0.0,70,0.00,,---,0.00,VWS V15.00,2014-02-16 22:37:00,
2014-02-16 17:42:00,57.5,47.8,30.04,West,271,0.0,1.0,70,0.00,,---,0.00,VWS V15.00,2014-02-16 22:42:00,
2014-02-16 17:47:00,57.0,47.3,30.04,WNW,303,2.0,2.0,70,0.00,,---,0.00,VWS V15.00,2014-02-16 22:47:00,
2014-02-16 17:52:00,56.7,47.0,30.04,WNW,298,1.0,1.0,70,0.00,,---,0.00,VWS V15.00,2014-02-16 22:52:00,
2014-02-16 17:57:00,56.3,46.7,30.05,WNW,297,0.0,0.0,70,0.00,,---,0.00,VWS V15.00,2014-02-16 22:57:00,
2014-02-16 18:02:00,55.8,45.8,30.05,West,271,0.0,1.0,69,0.00,,---,0.00,VWS V15.00,2014-02-16 23:02:00,
2014-02-16 18:07:00,55.6,45.6,30.06,SSW,213,0.0,1.0,69,0.00,,---,0.00,VWS V15.00,2014-02-16 23:07:00,
2014-02-16 18:12:00,55.3,45.3,30.06,WSW,246,0.0,0.0,69,0.00,,---,0.00,VWS V15.00,2014-02-16 23:12:00,
2014-02-16 18:17:00,54.9,44.9,30.06,WSW,244,0.0,0.0,69,0.00,,---,0.00,VWS V15.00,2014-02-16 23:17:00,
2014-02-16 18:22:00,54.5,44.5,30.07,WSW,250,0.0,0.0,69,0.00,,---,0.00,VWS V15.00,2014-02-16 23:22:00,
2014-02-16 18:27:00,54.1,44.2,30.07,WSW,252,0.0,0.0,69,0.00,,---,0.00,VWS V15.00,2014-02-16 23:27:00,
2014-02-16 18:32:00,53.8,43.9,30.07,WSW,237,0.0,0.0,69,0.00,,---,0.00,VWS V15.00,2014-02-16 23:32:00,
2014-02-16 18:37:00,53.3,43.4,30.07,WSW,237,0.0,0.0,69,0.00,,---,0.00,VWS V15.00,2014-02-16 23:37:00,
2014-02-16 18:42:00,52.6,42.7,30.08,WSW,237,0.0,1.0,69,0.00,,---,0.00,VWS V15.00,2014-02-16 23:42:00,
2014-02-16 18:47:00,52.3,42.5,30.08,WSW,240,0.0,0.0,69,0.00,,---,0.00,VWS V15.00,2014-02-16 23:47:00,
2014-02-16 18:52:00,52.0,42.2,30.08,WSW,240,0.0,0.0,69,0.00,,---,0.00,VWS V15.00,2014-02-16 23:52:00,
2014-02-16 18:57:00,51.7,41.9,30.08,WSW,240,0.0,0.0,69,0.00,,---,0.00,VWS V15.00,2014-02-16 23:57:00,
2014-02-16 19:02:00,51.3,41.5,30.08,WSW,240,0.0,0.0,69,0.00,,---,0.00,VWS V15.00,2014-02-17 00:02:00,
2014-02-16 19:07:00,50.8,41.0,30.08,WSW,240,0.0,0.0,69,0.00,,---,0.00,VWS V15.00,2014-02-17 00:07:00,
2014-02-16 19:12:00,50.6,40.8,30.08,WSW,240,0.0,0.0,69,0.00,,---,0.00,VWS V15.00,2014-02-17 00:12:00,
2014-02-16 19:17:00,50.1,40.3,30.09,WSW,258,0.0,1.0,69,0.00,,---,0.00,VWS V15.00,2014-02-17 00:17:00,
2014-02-16 19:22:00,50.3,40.5,30.09,SW,233,0.0,1.0,69,0.00,,---,0.00,VWS V15.00,2014-02-17 00:22:00,
2014-02-16 19:28:00,50.1,40.3,30.09,SW,233,0.0,0.0,69,0.00,,---,0.00,VWS V15.00,2014-02-17 00:28:00,
2014-02-16 19:33:00,49.7,40.0,30.10,SW,233,0.0,0.0,69,0.00,,---,0.00,VWS V15.00,2014-02-17 00:33:00,
2014-02-16 19:38:00,49.3,39.6,30.10,SW,234,0.0,0.0,69,0.00,,---,0.00,VWS V15.00,2014-02-17 00:38:00,
2014-02-16 19:43:00,48.9,39.2,30.10,SW,234,0.0,0.0,69,0.00,,---,0.00,VWS V15.00,2014-02-17 00:43:00,
2014-02-16 19:48:00,48.4,38.7,30.10,SW,234,0.0,0.0,69,0.00,,---,0.00,VWS V15.00,2014-02-17 00:48:00,
2014-02-16 19:53:00,48.2,38.5,30.10,SW,234,0.0,0.0,69,0.00,,---,0.00,VWS V15.00,2014-02-17 00:53:00,
2014-02-16 19:58:00,48.2,38.5,30.10,SW,234,0.0,0.0,69,0.00,,---,0.00,VWS V15.00,2014-02-17 00:58:00,
2014-02-16 20:03:00,48.2,38.5,30.10,SW,234,0.0,0.0,69,0.00,,---,0.00,VWS V15.00,2014-02-17 01:03:00,
2014-02-16 20:08:00,48.2,38.5,30.10,SW,234,0.0,0.0,69,0.00,,---,0.00,VWS V15.00,2014-02-17 01:08:00,
2014-02-16 20:13:00,48.2,38.5,30.10,SW,234,0.0,0.0,69,0.00,,---,0.00,VWS V15.00,2014-02-17 01:13:00,
2014-02-16 20:18:00,48.2,38.5,30.10,SW,234,0.0,0.0,69,0.00,,---,0.00,VWS V15.00,2014-02-17 01:18:00,
2014-02-16 20:23:00,48.2,38.5,30.10,SW,234,0.0,0.0,69,0.00,,---,0.00,VWS V15.00,2014-02-17 01:23:00,
2014-02-16 20:28:00,48.2,38.5,30.10,SW,234,0.0,0.0,69,0.00,,---,0.00,VWS V15.00,2014-02-17 01:28:00,
2014-02-16 20:33:00,48.2,38.5,30.10,SW,234,0.0,0.0,69,0.00,,---,0.00,VWS V15.00,2014-02-17 01:33:00,
2014-02-16 20:38:00,48.2,38.5,30.10,SW,234,0.0,0.0,69,0.00,,---,0.00,VWS V15.00,2014-02-17 01:38:00,
2014-02-16 20:43:00,48.2,38.5,30.10,SW,234,0.0,0.0,69,0.00,,---,0.00,VWS V15.00,2014-02-17 01:43:00,
2014-02-16 20:48:00,48.2,38.5,30.10,SW,234,0.0,0.0,69,0.00,,---,0.00,VWS V15.00,2014-02-17 01:48:00,
2014-02-16 20:53:00,48.2,38.5,30.10,SW,234,0.0,0.0,69,0.00,,---,0.00,VWS V15.00,2014-02-17 01:53:00,
2014-02-16 20:58:00,48.2,38.5,30.10,SW,234,0.0,0.0,69,0.00,,---,0.00,VWS V15.00,2014-02-17 01:58:00,
2014-02-16 21:03:00,48.2,38.5,30.10,SW,234,0.0,0.0,69,0.00,,---,0.00,VWS V15.00,2014-02-17 02:03:00,
2014-02-16 21:08:00,48.2,38.5,30.10,SW,234,0.0,0.0,69,0.00,,---,0.00,VWS V15.00,2014-02-17 02:08:00,
2014-02-16 21:13:00,48.2,38.5,30.10,SW,234,0.0,0.0,69,0.00,,---,0.00,VWS V15.00,2014-02-17 02:13:00,
2014-02-16 21:15:00,48.2,38.5,30.10,SW,234,0.0,0.0,69,0.00,,---,0.00,VWS V15.00,2014-02-17 02:15:00,
2014-02-16 21:20:00,48.2,38.5,30.10,SW,234,0.0,0.0,69,0.00,,---,0.00,VWS V15.00,2014-02-17 02:20:00,
2014-02-16 21:25:00,48.2,38.5,30.10,SW,234,0.0,0.0,69,0.00,,---,0.00,VWS V15.00,2014-02-17 02:25:00,
2014-02-16 21:30:00,48.2,38.5,30.10,SW,234,0.0,0.0,69,0.00,,---,0.00,VWS V15.00,2014-02-17 02:30:00,
2014-02-16 21:35:00,48.2,38.5,30.10,SW,234,0.0,0.0,69,0.00,,---,0.00,VWS V15.00,2014-02-17 02:35:00,
2014-02-16 21:40:00,48.2,38.5,30.10,SW,234,0.0,0.0,69,0.00,,---,0.00,VWS V15.00,2014-02-17 02:40:00,
2014-02-16 21:46:00,48.2,38.5,30.10,SW,234,0.0,0.0,69,0.00,,---,0.00,VWS V15.00,2014-02-17 02:46:00,
2014-02-16 21:51:00,48.2,38.5,30.10,SW,234,0.0,0.0,69,0.00,,---,0.00,VWS V15.00,2014-02-17 02:51:00,
2014-02-16 21:56:00,48.2,38.5,30.10,SW,234,0.0,0.0,69,0.00,,---,0.00,VWS V15.00,2014-02-17 02:56:00,
2014-02-16 22:01:00,48.2,38.5,30.10,SW,234,0.0,0.0,69,0.00,,---,0.00,VWS V15.00,2014-02-17 03:01:00,
2014-02-16 22:06:00,48.2,38.5,30.10,SW,234,0.0,0.0,69,0.00,,---,0.00,VWS V15.00,2014-02-17 03:06:00,
2014-02-16 22:11:00,48.2,38.5,30.10,SW,234,0.0,0.0,69,0.00,,---,0.00,VWS V15.00,2014-02-17 03:11:00,
2014-02-16 22:16:00,48.2,38.5,30.10,SW,234,0.0,0.0,69,0.00,,---,0.00,VWS V15.00,2014-02-17 03:16:00,
2014-02-16 22:21:00,48.2,38.5,30.10,SW,234,0.0,0.0,69,0.00,,---,0.00,VWS V15.00,2014-02-17 03:21:00,
2014-02-16 22:26:00,48.2,38.5,30.10,SW,234,0.0,0.0,69,0.00,,---,0.00,VWS V15.00,2014-02-17 03:26:00,
2014-02-16 22:31:00,48.2,38.5,30.10,SW,234,0.0,0.0,69,0.00,,---,0.00,VWS V15.00,2014-02-17 03:31:00,
2014-02-16 22:36:00,48.2,38.5,30.10,SW,234,0.0,0.0,69,0.00,,---,0.00,VWS V15.00,2014-02-17 03:36:00,
2014-02-16 22:41:00,48.2,38.5,30.10,SW,234,0.0,0.0,69,0.00,,---,0.00,VWS V15.00,2014-02-17 03:41:00,
2014-02-16 22:46:00,48.2,38.5,30.10,SW,234,0.0,0.0,69,0.00,,---,0.00,VWS V15.00,2014-02-17 03:46:00,
2014-02-16 22:51:00,48.2,38.5,30.10,SW,234,0.0,0.0,69,0.00,,---,0.00,VWS V15.00,2014-02-17 03:51:00,
2014-02-16 22:56:00,48.2,38.5,30.10,SW,234,0.0,0.0,69,0.00,,---,0.00,VWS V15.00,2014-02-17 03:56:00,
2014-02-16 23:01:00,48.2,38.5,30.10,SW,234,0.0,0.0,69,0.00,,---,0.00,VWS V15.00,2014-02-17 04:01:00,
2014-02-16 23:06:00,48.2,38.5,30.10,SW,234,0.0,0.0,69,0.00,,---,0.00,VWS V15.00,2014-02-17 04:06:00,
2014-02-16 23:11:00,48.2,38.5,30.10,SW,234,0.0,0.0,69,0.00,,---,0.00,VWS V15.00,2014-02-17 04:11:00,
2014-02-16 23:16:00,48.2,38.5,30.10,SW,234,0.0,0.0,69,0.00,,---,0.00,VWS V15.00,2014-02-17 04:16:00,
2014-02-16 23:21:00,48.2,38.5,30.10,SW,234,0.0,0.0,69,0.00,,---,0.00,VWS V15.00,2014-02-17 04:21:00,
2014-02-16 23:26:00,48.2,38.5,30.10,SW,234,0.0,0.0,69,0.00,,---,0.00,VWS V15.00,2014-02-17 04:26:00,
2014-02-16 23:31:00,48.2,38.5,30.10,SW,234,0.0,0.0,69,0.00,,---,0.00,VWS V15.00,2014-02-17 04:31:00,
2014-02-16 23:36:00,48.2,38.5,30.10,SW,234,0.0,0.0,69,0.00,,---,0.00,VWS V15.00,2014-02-17 04:36:00,
2014-02-16 23:41:00,48.2,38.5,30.10,SW,234,0.0,0.0,69,0.00,,---,0.00,VWS V15.00,2014-02-17 04:41:00,
2014-02-16 23:46:00,48.2,38.5,30.10,SW,234,0.0,0.0,69,0.00,,---,0.00,VWS V15.00,2014-02-17 04:46:00,
2014-02-16 23:51:00,48.2,38.5,30.10,SW,234,0.0,0.0,69,0.00,,---,0.00,VWS V15.00,2014-02-17 04:51:00,
2014-02-16 23:56:00,48.2,38.5,30.10,SW,234,0.0,0.0,69,0.00,,---,0.00,VWS V15.00,2014-02-17 04:56:00,